Historyczne dane pomiarowe

Dodano dane terminowe – wersja testowa.

Dane z okresu 1951-2019

Wersja bazy: 1.34 [2019-03-16, lista zmian], aktualizacja planowana na 2019-04-15

Dane meteo z obszaru Polski uzyskane na podstawie danych udostępnionych przez Instytut Meteorologii i Gospodarki Wodnej – Państwowy Instytut Badawczy.

 

Wybierz Datę:    

       

TemperaturaWilgotnośćWiatrCiśnienieOpadyŚniegCzas trwania zjawisk
 Stacja t tx tn tng RH VA  wxwx mslp ppp RRR   cm mm wxwxwxwxwxwxwx
2005-08-13 14.7 21.3 9.3 4.7 74.5- 6.3 1.7---- 11.5------------
2005-08-14 15.0 18.3 11.8 9.9 80.5- 8.0 1.0---- 0.0------------
2005-08-15 17.5 22.3 13.3 10.9 68.8- 6.0 1.0---- 0.0------------
2005-08-16 17.3 23.2 11.4 6.9 75.8- 7.0 0.7---- 0.8------------
2005-08-17 19.1 25.8 14.7 11.4 73.3- 3.7 0.7---- 0.0------------
2005-08-18 18.5 25.5 12.2 7.9 75.3- 5.0 1.0---- 0.0------------
2005-08-19 18.7 26.5 11.8 13.9 66.5- 3.7 2.0---- 0.0------------
2005-08-20 18.9 26.9 11.8 5.9 63.8- 2.0 2.3---- 0.0------------
2005-08-21 18.5 27.4 10.1 4.8 61.5- 1.0 1.0---- 0.0------------
2005-08-22 19.0 27.0 12.4 6.4 74.5- 6.0 1.7---- 0.0------------
2005-08-23 19.7 27.4 13.8 9.4 82.8- 7.0 1.0---- 0.0------------
2005-08-24 19.5 26.7 14.8 10.9 81.0- 5.7 1.3---- 3.3------------
2005-08-25 19.5 25.9 14.3 9.9 78.3- 8.0 0.7---- 0.0------------
2005-08-26 18.0 22.3 13.8 13.0 75.0- 7.3 2.0---- 0.0------------
2005-08-27 15.5 21.3 10.3 4.3 63.0- 5.0 1.3---- 0.0------------
2005-08-28 15.2 20.0 9.6 4.8 72.5- 3.0 1.0---- 0.0------------
2005-08-29 18.7 26.4 12.8 7.4 62.3- 5.7 0.7---- 0.0------------
2005-08-30 19.4 28.4 9.3 8.4 68.5- 4.3 1.7---- 0.0------------
2005-08-31 16.6 25.4 10.8 4.7 72.8- 2.0 1.3---- 0.0------------
2005-09-01 15.5 24.4 8.3 2.8 62.0- 0.3 1.7---- 0.0------------
2005-09-02 15.4 24.9 7.4 1.8 77.0- 2.7 1.3---- 0.0------------
2005-09-03 15.0 19.3 11.8 4.1 89.0- 3.7 1.3---- 0.0------------
2005-09-04 18.0 25.9 10.8 5.9 82.3- 5.7 0.7---- 0.0------------
2005-09-05 17.3 26.4 10.6 5.0 78.8- 2.3 1.7---- 0.0------------
2005-09-06 17.7 28.4 9.8 -0.1 67.3- 4.7 1.7---- 0.0------------
2005-09-07 18.6 27.4 11.1 4.8 77.5- 3.0 1.7---- 0.0------------
2005-09-08 21.0 27.9 15.0 8.7 86.3- 4.0 1.7---- 0.0------------
2005-09-09 21.4 29.9 15.4 8.9 85.5- 2.7 1.7---- 0.0------------
2005-09-10 20.0 28.4 11.3 9.9 86.5- 3.7 1.7---- 0.0------------
2005-09-11 20.9 26.6 18.9 16.6 89.3- 4.3 1.3---- 0.0------------
128.6 ms

 

Źródłem pochodzenia danych jest Instytut Meteorologii i Gospodarki Wodnej – Państwowy Instytut Badawczy. Dane Instytutu Meteorologii i Gospodarki Wodnej – Państwowego Instytutu Badawczego zostały przetworzone.

Dane źródłowe można odnaleźć na stronie https://dane.imgw.pl